createdAt,value
2022-10-06T00:01:56.509Z,18.56
2022-10-06T00:04:22.873Z,18.61
2022-10-06T00:06:49.214Z,18.60
2022-10-06T00:09:15.564Z,18.65
2022-10-06T00:11:41.895Z,18.70
2022-10-06T00:14:08.236Z,18.68
2022-10-06T00:16:34.582Z,18.62
2022-10-06T00:19:00.913Z,18.62
2022-10-06T00:21:27.246Z,18.63
2022-10-06T00:23:53.589Z,18.69
2022-10-06T00:26:19.936Z,18.74
2022-10-06T00:28:46.376Z,18.68
2022-10-06T00:31:12.809Z,18.60
2022-10-06T00:33:39.190Z,18.74
2022-10-06T00:36:05.541Z,18.72
2022-10-06T00:38:32.240Z,18.79
2022-10-06T00:40:58.942Z,18.72
2022-10-06T00:43:25.294Z,18.77
2022-10-06T00:45:51.654Z,18.68
2022-10-06T00:48:17.997Z,18.67
2022-10-06T00:50:44.328Z,18.53
2022-10-06T00:53:10.661Z,18.33
2022-10-06T00:55:36.998Z,18.14
2022-10-06T00:58:03.333Z,18.12
2022-10-06T01:00:29.660Z,18.06
2022-10-06T01:02:56.085Z,18.00
2022-10-06T01:05:22.500Z,18.21
2022-10-06T01:07:48.843Z,18.18
2022-10-06T01:10:15.196Z,18.25
2022-10-06T01:12:41.538Z,18.34
2022-10-06T01:15:07.879Z,18.32
2022-10-06T01:17:34.206Z,18.34
2022-10-06T01:20:00.530Z,18.35
2022-10-06T01:22:26.882Z,18.28
2022-10-06T01:24:53.226Z,18.23
2022-10-06T01:27:19.577Z,18.11
2022-10-06T01:29:45.912Z,18.01
2022-10-06T01:32:12.249Z,17.99
2022-10-06T01:34:38.577Z,17.99
2022-10-06T01:37:04.922Z,17.93
2022-10-06T01:39:31.258Z,17.99
2022-10-06T01:41:57.609Z,18.01
2022-10-06T01:44:23.968Z,17.93
2022-10-06T01:46:50.336Z,17.84
2022-10-06T01:49:16.698Z,17.94
2022-10-06T01:51:43.027Z,17.92
2022-10-06T01:54:09.353Z,17.94
2022-10-06T01:56:35.698Z,17.81
2022-10-06T01:59:02.036Z,17.72
2022-10-06T02:01:28.390Z,17.75
2022-10-06T02:03:54.735Z,17.89
2022-10-06T02:06:21.117Z,17.93
2022-10-06T02:08:47.504Z,18.06
2022-10-06T02:11:13.841Z,18.10
2022-10-06T02:13:40.173Z,18.13
2022-10-06T02:16:06.758Z,17.95
2022-10-06T02:18:33.250Z,18.05
2022-10-06T02:20:59.602Z,18.12
2022-10-06T02:23:25.939Z,18.16
2022-10-06T02:25:52.282Z,18.15
2022-10-06T02:28:18.670Z,18.19
2022-10-06T02:30:45.075Z,18.19
2022-10-06T02:33:11.415Z,18.15
2022-10-06T02:35:37.750Z,18.06
2022-10-06T02:38:04.098Z,18.02
2022-10-06T02:40:30.442Z,17.95
2022-10-06T02:42:56.812Z,17.81
2022-10-06T02:45:23.166Z,17.87
2022-10-06T02:47:49.500Z,17.79
2022-10-06T02:50:15.864Z,17.86
2022-10-06T02:52:42.245Z,17.76
2022-10-06T02:55:08.582Z,17.63
2022-10-06T02:57:34.916Z,17.63
2022-10-06T03:00:01.249Z,17.65
2022-10-06T03:02:27.714Z,17.56
2022-10-06T03:04:54.095Z,17.69
2022-10-06T03:07:20.423Z,17.70
2022-10-06T03:09:46.777Z,17.80
2022-10-06T03:12:13.130Z,17.71
2022-10-06T03:14:39.466Z,17.76
2022-10-06T03:17:05.796Z,17.64
2022-10-06T03:19:32.133Z,17.45
2022-10-06T03:21:58.477Z,17.57
2022-10-06T03:24:24.798Z,17.50
2022-10-06T03:26:51.132Z,17.71
2022-10-06T03:29:17.470Z,17.70
2022-10-06T03:31:43.882Z,17.54
2022-10-06T03:34:10.289Z,17.45
2022-10-06T03:36:36.627Z,17.32
2022-10-06T03:39:02.956Z,17.51
2022-10-06T03:41:29.301Z,17.63
2022-10-06T03:43:55.643Z,17.73
2022-10-06T03:46:22.051Z,17.58
2022-10-06T03:48:48.413Z,17.43
2022-10-06T03:51:14.746Z,17.59
2022-10-06T03:53:41.080Z,17.66
2022-10-06T03:56:07.413Z,17.64
2022-10-06T03:58:33.745Z,17.47
2022-10-06T04:01:00.156Z,17.56
2022-10-06T04:03:26.578Z,17.43
2022-10-06T04:05:52.919Z,17.36
2022-10-06T04:08:19.256Z,17.50
2022-10-06T04:10:45.586Z,17.57
2022-10-06T04:13:11.921Z,17.54
2022-10-06T04:15:38.258Z,17.39
2022-10-06T04:18:04.584Z,17.44
2022-10-06T04:20:30.937Z,17.36
2022-10-06T04:22:57.277Z,17.37
2022-10-06T04:25:23.604Z,17.42
2022-10-06T04:27:49.954Z,17.41
2022-10-06T04:30:16.284Z,17.27
2022-10-06T04:32:42.619Z,17.27
2022-10-06T04:35:08.954Z,17.27
2022-10-06T04:37:35.288Z,17.41
2022-10-06T04:40:01.621Z,17.41
2022-10-06T04:42:31.294Z,17.23
2022-10-06T04:45:00.388Z,17.32
2022-10-06T04:47:26.720Z,17.53
2022-10-06T04:49:53.053Z,17.36
2022-10-06T04:52:19.398Z,17.31
2022-10-06T04:54:45.738Z,17.18
2022-10-06T04:57:12.077Z,17.05
2022-10-06T04:59:38.427Z,17.01
2022-10-06T05:02:04.833Z,17.18
2022-10-06T05:04:31.210Z,17.34
2022-10-06T05:06:57.557Z,17.24
2022-10-06T05:09:23.889Z,17.16
2022-10-06T05:11:50.230Z,17.05
2022-10-06T05:14:16.582Z,16.94
2022-10-06T05:16:43.062Z,16.88
2022-10-06T05:19:09.494Z,17.01
2022-10-06T05:21:35.827Z,17.15
2022-10-06T05:24:02.172Z,17.28
2022-10-06T05:26:28.503Z,17.36
2022-10-06T05:28:54.837Z,17.47
2022-10-06T05:31:21.210Z,17.32
2022-10-06T05:33:47.607Z,17.37
2022-10-06T05:36:13.955Z,17.23
2022-10-06T05:38:40.303Z,17.37
2022-10-06T05:41:06.667Z,17.39
2022-10-06T05:43:33.017Z,17.35
2022-10-06T05:45:59.417Z,17.30
2022-10-06T05:48:26.191Z,17.19
2022-10-06T05:50:52.823Z,17.04
2022-10-06T05:53:19.165Z,16.97
2022-10-06T05:55:45.521Z,17.15
2022-10-06T05:58:14.198Z,17.28
2022-10-06T06:00:44.118Z,17.25
2022-10-06T06:03:10.468Z,17.16
2022-10-06T06:05:36.805Z,17.16
2022-10-06T06:08:03.143Z,17.24
2022-10-06T06:10:29.481Z,17.30
2022-10-06T06:12:55.809Z,17.44
2022-10-06T06:15:22.151Z,17.37
2022-10-06T06:17:48.485Z,17.26
2022-10-06T06:20:14.808Z,17.17
2022-10-06T06:22:41.128Z,17.17
2022-10-06T06:25:07.454Z,17.34
2022-10-06T06:27:33.782Z,17.47
2022-10-06T06:30:00.153Z,17.47
2022-10-06T06:32:26.497Z,17.57
2022-10-06T06:34:52.842Z,17.57
2022-10-06T06:37:19.186Z,17.66
2022-10-06T06:39:45.541Z,17.70
2022-10-06T06:42:11.879Z,17.71
2022-10-06T06:44:38.222Z,17.77
2022-10-06T06:47:04.559Z,17.82
2022-10-06T06:49:30.910Z,17.92
2022-10-06T06:51:57.236Z,18.02
2022-10-06T06:54:23.558Z,18.07
2022-10-06T06:56:49.904Z,18.19
2022-10-06T06:59:16.254Z,18.17
2022-10-06T07:01:42.674Z,18.20
2022-10-06T07:04:09.165Z,18.23
2022-10-06T07:06:35.519Z,18.23
2022-10-06T07:09:01.853Z,18.40
2022-10-06T07:11:28.188Z,18.39
2022-10-06T07:13:54.533Z,18.34
2022-10-06T07:16:20.958Z,18.32
2022-10-06T07:18:47.322Z,18.35
2022-10-06T07:21:13.644Z,18.49
2022-10-06T07:23:39.975Z,18.46
2022-10-06T07:26:06.329Z,18.56
2022-10-06T07:28:32.700Z,18.56
2022-10-06T07:30:59.065Z,18.65
2022-10-06T07:33:25.437Z,18.76
2022-10-06T07:35:51.786Z,18.82
2022-10-06T07:38:18.117Z,18.59
2022-10-06T07:40:50.589Z,18.80
2022-10-06T07:43:27.379Z,18.88
2022-10-06T07:45:53.763Z,18.93
2022-10-06T07:48:20.105Z,18.94
2022-10-06T07:50:46.438Z,18.99
2022-10-06T07:53:12.760Z,19.01
2022-10-06T07:55:39.098Z,19.12
2022-10-06T07:58:05.436Z,19.11
2022-10-06T08:03:03.086Z,19.22
2022-10-06T08:05:29.487Z,19.29
2022-10-06T08:07:55.908Z,19.24
2022-10-06T08:10:22.267Z,19.23
2022-10-06T08:12:48.682Z,19.31
2022-10-06T08:15:15.037Z,19.49
2022-10-06T08:17:41.377Z,19.51
2022-10-06T08:20:07.721Z,19.51
2022-10-06T08:22:34.045Z,19.43
2022-10-06T08:25:07.666Z,19.48
2022-10-06T08:27:34.331Z,19.43
2022-10-06T08:30:00.659Z,19.49
2022-10-06T08:32:26.992Z,19.56
2022-10-06T08:34:53.568Z,19.63
2022-10-06T08:37:20.650Z,19.77
2022-10-06T08:39:47.144Z,19.70
2022-10-06T08:42:13.480Z,19.77
2022-10-06T08:44:39.807Z,19.73
2022-10-06T08:47:06.149Z,19.77
2022-10-06T08:49:32.489Z,19.85
2022-10-06T08:51:58.836Z,19.87
2022-10-06T08:54:25.176Z,19.90
2022-10-06T08:56:51.522Z,19.92
2022-10-06T08:59:17.865Z,19.91
2022-10-06T09:01:44.323Z,20.05
2022-10-06T09:04:10.737Z,20.07
2022-10-06T09:06:37.081Z,20.17
2022-10-06T09:09:03.437Z,20.09
2022-10-06T09:11:29.774Z,20.13
2022-10-06T09:13:56.116Z,20.14
2022-10-06T09:16:22.551Z,20.23
2022-10-06T09:19:07.774Z,20.22
2022-10-06T09:21:34.837Z,20.31
2022-10-06T09:24:01.198Z,20.14
2022-10-06T09:26:27.557Z,20.10
2022-10-06T09:28:53.903Z,20.11
2022-10-06T09:31:20.302Z,20.13
2022-10-06T09:33:46.706Z,20.40
2022-10-06T09:36:13.049Z,20.35
2022-10-06T09:38:39.384Z,20.44
2022-10-06T09:41:05.737Z,20.26
2022-10-06T09:43:32.084Z,20.38
2022-10-06T09:45:58.485Z,20.52
2022-10-06T09:48:25.341Z,20.74
2022-10-06T09:50:51.829Z,20.74
2022-10-06T09:53:18.173Z,20.84
2022-10-06T09:55:44.513Z,20.91
2022-10-06T09:58:10.843Z,20.48
2022-10-06T10:00:37.231Z,20.52
2022-10-06T10:03:03.660Z,20.71
2022-10-06T10:05:30.033Z,20.85
2022-10-06T10:07:56.368Z,20.91
2022-10-06T10:10:22.710Z,20.92
2022-10-06T10:12:49.054Z,20.99
2022-10-06T10:15:15.410Z,21.07
2022-10-06T10:17:41.787Z,21.02
2022-10-06T10:20:08.115Z,21.05
2022-10-06T10:22:34.445Z,21.09
2022-10-06T10:25:00.776Z,20.70
2022-10-06T10:27:27.111Z,20.96
2022-10-06T10:29:53.451Z,20.88
2022-10-06T10:32:19.799Z,20.86
2022-10-06T10:34:46.159Z,21.00
2022-10-06T10:37:12.505Z,21.06
2022-10-06T10:39:38.861Z,21.19
2022-10-06T10:42:05.196Z,20.83
2022-10-06T10:44:31.533Z,20.86
2022-10-06T10:46:57.916Z,21.04
2022-10-06T10:49:24.265Z,21.26
2022-10-06T10:51:50.613Z,21.25
2022-10-06T10:54:16.948Z,21.36
2022-10-06T10:56:43.297Z,21.34
2022-10-06T10:59:09.661Z,21.50
2022-10-06T11:01:36.055Z,21.46
2022-10-06T11:04:02.410Z,21.62
2022-10-06T11:06:28.757Z,21.53
2022-10-06T11:08:55.113Z,21.66
2022-10-06T11:11:21.458Z,21.59
2022-10-06T11:13:47.806Z,21.78
2022-10-06T11:16:14.189Z,21.46
2022-10-06T11:18:40.529Z,21.67
2022-10-06T11:21:06.851Z,21.57
2022-10-06T11:23:33.184Z,21.67
2022-10-06T11:25:59.540Z,21.65
2022-10-06T11:28:25.901Z,21.55
2022-10-06T11:30:52.374Z,21.77
2022-10-06T11:33:19.796Z,21.72
2022-10-06T11:35:46.133Z,21.89
2022-10-06T11:38:12.468Z,21.41
2022-10-06T11:40:38.816Z,21.63
2022-10-06T11:43:05.145Z,21.92
2022-10-06T11:45:31.489Z,21.92
2022-10-06T11:47:57.864Z,21.78
2022-10-06T11:50:24.207Z,21.96
2022-10-06T11:52:50.546Z,22.08
2022-10-06T11:55:16.881Z,22.11
2022-10-06T11:57:43.223Z,22.06
2022-10-06T12:00:09.564Z,22.27
2022-10-06T12:02:36.069Z,22.35
2022-10-06T12:05:02.531Z,22.32
2022-10-06T12:07:28.871Z,22.31
2022-10-06T12:09:55.219Z,22.39
2022-10-06T12:12:21.556Z,22.11
2022-10-06T12:17:34.214Z,22.44
2022-10-06T12:20:00.562Z,22.35
2022-10-06T12:22:26.906Z,22.37
2022-10-06T12:24:53.233Z,22.27
2022-10-06T12:27:22.055Z,22.42
2022-10-06T12:29:51.467Z,22.41
2022-10-06T12:32:17.804Z,22.58
2022-10-06T12:34:44.152Z,22.83
2022-10-06T12:37:10.487Z,22.57
2022-10-06T12:39:36.833Z,22.47
2022-10-06T12:42:03.176Z,22.83
2022-10-06T12:44:29.511Z,22.60
2022-10-06T12:46:55.854Z,22.80
2022-10-06T12:49:22.193Z,23.02
2022-10-06T12:51:48.526Z,23.07
2022-10-06T12:54:14.900Z,22.87
2022-10-06T12:56:41.236Z,23.18
2022-10-06T12:59:07.586Z,22.89
2022-10-06T13:01:33.993Z,23.31
2022-10-06T13:04:00.360Z,23.08
2022-10-06T13:06:26.693Z,23.04
2022-10-06T13:08:53.033Z,23.05
2022-10-06T13:11:19.378Z,23.25
2022-10-06T13:13:45.733Z,22.95
2022-10-06T13:16:12.088Z,22.90
2022-10-06T13:18:38.423Z,23.02
2022-10-06T13:21:04.745Z,23.29
2022-10-06T13:23:31.088Z,23.05
2022-10-06T13:25:57.417Z,23.13
2022-10-06T13:28:23.824Z,23.22
2022-10-06T13:30:50.296Z,23.14
2022-10-06T13:33:16.681Z,23.17
2022-10-06T13:35:43.007Z,23.29
2022-10-06T13:38:09.370Z,23.29
2022-10-06T13:40:50.586Z,22.94
2022-10-06T13:43:16.958Z,23.24
2022-10-06T13:45:43.303Z,23.02
2022-10-06T13:48:09.643Z,23.26
2022-10-06T13:50:35.977Z,23.30
2022-10-06T13:53:02.326Z,23.32
2022-10-06T13:55:28.675Z,23.16
2022-10-06T13:57:55.005Z,23.35
2022-10-06T14:00:21.337Z,23.15
2022-10-06T14:02:47.740Z,22.86
2022-10-06T14:05:14.167Z,22.76
2022-10-06T14:07:40.506Z,22.84
2022-10-06T14:10:06.866Z,22.76
2022-10-06T14:12:33.220Z,23.01
2022-10-06T14:14:59.788Z,23.12
2022-10-06T14:17:26.386Z,22.94
2022-10-06T14:19:52.740Z,23.01
2022-10-06T14:22:19.082Z,23.03
2022-10-06T14:24:45.422Z,23.11
2022-10-06T14:27:11.782Z,22.82
2022-10-06T14:29:38.207Z,23.25
2022-10-06T14:32:04.571Z,23.03
2022-10-06T14:34:30.914Z,23.19
2022-10-06T14:36:57.248Z,23.18
2022-10-06T14:39:23.618Z,22.83
2022-10-06T14:41:49.959Z,23.04
2022-10-06T14:44:16.348Z,23.32
2022-10-06T14:46:42.779Z,23.06
2022-10-06T14:49:09.136Z,23.36
2022-10-06T14:51:36.872Z,23.38
2022-10-06T14:54:03.632Z,23.11
2022-10-06T14:56:29.985Z,23.37
2022-10-06T14:58:56.327Z,23.36
2022-10-06T15:01:22.678Z,23.37
2022-10-06T15:03:49.348Z,23.44
2022-10-06T15:06:15.834Z,23.32
2022-10-06T15:08:42.168Z,23.27
2022-10-06T15:11:08.512Z,22.98
2022-10-06T15:13:34.853Z,23.03
2022-10-06T15:16:01.232Z,22.62
2022-10-06T15:18:27.593Z,22.95
2022-10-06T15:20:53.935Z,22.80
2022-10-06T15:23:20.270Z,22.59
2022-10-06T15:25:46.608Z,22.75
2022-10-06T15:28:12.988Z,22.87
2022-10-06T15:30:39.337Z,22.93
2022-10-06T15:33:05.674Z,22.56
2022-10-06T15:35:32.007Z,22.46
2022-10-06T15:37:58.343Z,22.52
2022-10-06T15:40:24.692Z,22.50
2022-10-06T15:42:51.034Z,22.58
2022-10-06T15:45:17.369Z,22.53
2022-10-06T15:47:43.715Z,22.61
2022-10-06T15:50:10.841Z,22.56
2022-10-06T15:52:39.312Z,22.61
2022-10-06T15:55:05.655Z,22.49
2022-10-06T15:57:32.001Z,22.31
2022-10-06T15:59:58.350Z,22.23
2022-10-06T16:02:24.806Z,22.28
2022-10-06T16:04:51.209Z,22.26
2022-10-06T16:07:17.539Z,21.91
2022-10-06T16:09:43.880Z,22.17
2022-10-06T16:12:10.233Z,21.93
2022-10-06T16:14:36.578Z,22.05
2022-10-06T16:17:02.911Z,21.78
2022-10-06T16:19:29.284Z,22.02
2022-10-06T16:21:58.976Z,21.99
2022-10-06T16:24:25.621Z,21.95
2022-10-06T16:26:51.941Z,22.02
2022-10-06T16:29:18.284Z,21.98
2022-10-06T16:31:44.784Z,21.92
2022-10-06T16:34:11.298Z,22.18
2022-10-06T16:36:37.636Z,22.08
2022-10-06T16:39:03.966Z,21.91
2022-10-06T16:41:30.296Z,21.88
2022-10-06T16:43:56.643Z,21.91
2022-10-06T16:46:23.013Z,21.89
2022-10-06T16:48:49.412Z,21.75
2022-10-06T16:51:15.757Z,21.61
2022-10-06T16:53:42.098Z,21.27
2022-10-06T16:56:08.452Z,21.59
2022-10-06T16:58:34.778Z,21.55
2022-10-06T17:01:01.170Z,21.58
2022-10-06T17:03:27.544Z,21.63
2022-10-06T17:05:53.872Z,21.62
2022-10-06T17:08:20.208Z,21.53
2022-10-06T17:10:46.545Z,21.52
2022-10-06T17:13:12.875Z,21.55
2022-10-06T17:15:39.240Z,21.46
2022-10-06T17:18:05.578Z,21.27
2022-10-06T17:20:31.908Z,21.26
2022-10-06T17:22:58.235Z,21.14
2022-10-06T17:25:24.581Z,21.14
2022-10-06T17:27:50.906Z,21.09
2022-10-06T17:30:17.254Z,20.96
2022-10-06T17:32:43.803Z,20.94
2022-10-06T17:35:10.161Z,20.79
2022-10-06T17:37:36.488Z,20.94
2022-10-06T17:40:02.828Z,20.99
2022-10-06T17:42:29.165Z,20.51
2022-10-06T17:44:55.496Z,20.74
2022-10-06T17:47:21.842Z,20.73
2022-10-06T17:49:48.162Z,20.72
2022-10-06T17:52:14.496Z,20.53
2022-10-06T17:54:40.861Z,20.54
2022-10-06T17:57:07.199Z,20.66
2022-10-06T17:59:33.533Z,20.57
2022-10-06T18:01:59.993Z,20.63
2022-10-06T18:04:26.405Z,20.54
2022-10-06T18:06:52.751Z,20.25
2022-10-06T18:09:19.111Z,20.22
2022-10-06T18:11:45.441Z,20.40
2022-10-06T18:14:11.807Z,20.50
2022-10-06T18:16:38.220Z,20.48
2022-10-06T18:19:04.612Z,20.43
2022-10-06T18:21:30.956Z,20.33
2022-10-06T18:23:57.298Z,20.39
2022-10-06T18:26:23.646Z,20.35
2022-10-06T18:28:49.993Z,20.33
2022-10-06T18:31:16.411Z,20.23
2022-10-06T18:35:57.698Z,20.55
2022-10-06T18:36:29.100Z,20.55
2022-10-06T18:38:55.446Z,20.42
2022-10-06T18:41:21.781Z,20.42
2022-10-06T18:43:48.124Z,20.41
2022-10-06T18:46:14.493Z,20.13
2022-10-06T18:48:40.850Z,19.96
2022-10-06T18:51:07.225Z,19.97
2022-10-06T18:53:33.552Z,19.87
2022-10-06T18:55:59.907Z,19.82
2022-10-06T18:58:26.234Z,19.81
2022-10-06T19:00:52.626Z,19.71
2022-10-06T19:03:19.146Z,19.59
2022-10-06T19:05:45.486Z,19.70
2022-10-06T19:08:11.819Z,19.78
2022-10-06T19:10:38.163Z,19.54
2022-10-06T19:13:04.488Z,19.91
2022-10-06T19:15:30.812Z,20.01
2022-10-06T19:17:57.165Z,19.47
2022-10-06T19:20:23.508Z,19.58
2022-10-06T19:22:49.840Z,19.77
2022-10-06T19:25:16.180Z,19.66
2022-10-06T19:27:42.738Z,19.72
2022-10-06T19:30:09.227Z,19.69
2022-10-06T19:32:35.554Z,19.73
2022-10-06T19:35:04.290Z,19.45
2022-10-06T19:37:34.167Z,19.49
2022-10-06T19:40:00.498Z,19.44
2022-10-06T19:42:26.831Z,19.38
2022-10-06T19:44:53.173Z,19.49
2022-10-06T19:47:19.515Z,19.55
2022-10-06T19:49:45.869Z,19.61
2022-10-06T19:52:12.223Z,19.54
2022-10-06T19:54:38.564Z,19.56
2022-10-06T19:57:05.795Z,19.59
2022-10-06T19:59:32.295Z,19.78
2022-10-06T20:01:58.626Z,19.71
2022-10-06T20:04:25.033Z,19.56
2022-10-06T20:06:51.435Z,19.41
2022-10-06T20:09:17.774Z,19.76
2022-10-06T20:11:44.103Z,19.41
2022-10-06T20:14:10.441Z,19.40
2022-10-06T20:16:36.825Z,19.18
2022-10-06T20:19:03.227Z,19.22
2022-10-06T20:21:29.634Z,19.29
2022-10-06T20:23:55.974Z,18.94
2022-10-06T20:26:22.313Z,19.28
2022-10-06T20:28:48.710Z,19.30
2022-10-06T20:31:15.159Z,19.51
2022-10-06T20:33:41.510Z,19.70
2022-10-06T20:36:07.903Z,19.71
2022-10-06T20:38:34.256Z,19.50
2022-10-06T20:41:00.598Z,19.34
2022-10-06T20:43:26.946Z,19.76
2022-10-06T20:45:53.367Z,19.81
2022-10-06T20:48:19.715Z,19.64
2022-10-06T20:50:46.063Z,19.58
2022-10-06T20:53:12.398Z,19.48
2022-10-06T20:55:38.734Z,19.66
2022-10-06T20:58:05.097Z,19.63
2022-10-06T21:00:31.479Z,19.66
2022-10-06T21:02:57.874Z,19.64
2022-10-06T21:05:24.275Z,19.66
2022-10-06T21:07:50.628Z,19.49
2022-10-06T21:10:16.982Z,19.43
2022-10-06T21:12:43.352Z,19.24
2022-10-06T21:15:09.713Z,19.08
2022-10-06T21:17:36.075Z,19.26
2022-10-06T21:20:02.461Z,19.34
2022-10-06T21:22:28.826Z,19.10
2022-10-06T21:24:55.186Z,19.09
2022-10-06T21:27:21.566Z,19.40
2022-10-06T21:29:47.926Z,19.30
2022-10-06T21:32:14.294Z,19.37
2022-10-06T21:34:40.644Z,19.29
2022-10-06T21:37:07.023Z,19.40
2022-10-06T21:39:33.387Z,19.31
2022-10-06T21:41:59.749Z,19.27
2022-10-06T21:44:26.129Z,19.13
2022-10-06T21:46:52.573Z,18.95
2022-10-06T21:49:18.992Z,18.97
2022-10-06T21:51:45.378Z,18.93
2022-10-06T21:54:11.746Z,19.15
2022-10-06T21:56:38.114Z,19.09
2022-10-06T21:59:04.474Z,19.00
2022-10-06T22:01:30.919Z,19.10
2022-10-06T22:03:57.361Z,19.20
2022-10-06T22:06:23.739Z,19.26
2022-10-06T22:08:50.142Z,19.08
2022-10-06T22:11:16.506Z,18.73
2022-10-06T22:13:42.858Z,19.02
2022-10-06T22:16:09.305Z,18.82
2022-10-06T22:18:35.709Z,19.10
2022-10-06T22:21:02.084Z,18.96
2022-10-06T22:23:28.437Z,19.22
2022-10-06T22:25:54.793Z,19.22
2022-10-06T22:28:21.213Z,19.16
2022-10-06T22:30:47.649Z,19.10
2022-10-06T22:33:14.032Z,19.13
2022-10-06T22:35:40.405Z,19.22
2022-10-06T22:38:06.790Z,18.81
2022-10-06T22:40:33.151Z,18.66
2022-10-06T22:42:59.524Z,18.56
2022-10-06T22:45:25.899Z,18.63
2022-10-06T22:47:52.266Z,18.74
2022-10-06T22:50:18.652Z,18.55
2022-10-06T22:52:45.023Z,18.52
2022-10-06T22:55:11.392Z,18.55
2022-10-06T22:57:37.771Z,18.44
2022-10-06T23:00:04.131Z,18.58
2022-10-06T23:02:30.502Z,18.30
2022-10-06T23:04:56.887Z,18.38
2022-10-06T23:07:23.242Z,18.48
2022-10-06T23:09:49.637Z,18.61
2022-10-06T23:12:15.987Z,18.77
2022-10-06T23:14:42.356Z,18.73
2022-10-06T23:17:08.715Z,18.66
2022-10-06T23:19:35.082Z,18.73
2022-10-06T23:22:01.443Z,18.44
2022-10-06T23:24:27.818Z,18.58
2022-10-06T23:26:54.198Z,18.54
2022-10-06T23:29:20.552Z,18.38
2022-10-06T23:31:46.976Z,18.41
2022-10-06T23:34:13.394Z,18.54
2022-10-06T23:36:39.768Z,18.55
2022-10-06T23:39:06.154Z,18.45
2022-10-06T23:41:32.530Z,18.58
2022-10-06T23:43:58.895Z,18.33
2022-10-06T23:46:25.269Z,18.44
2022-10-06T23:48:51.647Z,18.32
2022-10-06T23:51:18.019Z,18.07
2022-10-06T23:53:44.373Z,18.26
2022-10-06T23:56:10.988Z,18.38
2022-10-06T23:58:37.433Z,18.49
